Time;durP1;ratioP1;P1;durP2;ratioP2;P2;SDS_P1;SDS_P2;PMS_P1;PMS_P2;Temp;Humidity;BMP_temperature;BMP_pressure;BME280_temperature;BME280_humidity;BME280_pressure;Samples;Min_cycle;Max_cycle;Signal;HPM_P1;HPM_P2
2023/06/08 00:00:33;;;;;;;7.53;4.35;;;19.10;99.90;;;;;;4166123;28;20540;-61
2023/06/08 00:02:33;;;;;;;10.00;4.95;;;19.10;99.90;;;;;;4168861;28;20053;-61
2023/06/08 00:04:34;;;;;;;10.02;4.38;;;19.10;99.90;;;;;;4168195;28;20516;-61
2023/06/08 00:06:37;;;;;;;9.35;4.93;;;19.10;99.90;;;;;;4173562;28;20399;-61
2023/06/08 00:08:37;;;;;;;8.15;4.53;;;19.10;99.90;;;;;;4172260;28;20035;-61
2023/06/08 00:10:42;;;;;;;9.25;4.88;;;19.00;99.90;;;;;;4168183;28;20057;-61
2023/06/08 00:12:44;;;;;;;8.80;4.60;;;19.10;99.90;;;;;;4166325;28;20037;-61
2023/06/08 00:14:45;;;;;;;10.13;4.22;;;19.00;99.90;;;;;;4166316;28;20361;-61
2023/06/08 00:16:48;;;;;;;10.38;4.65;;;19.00;99.90;;;;;;4166109;28;20484;-61
2023/06/08 00:18:49;;;;;;;11.55;5.45;;;19.00;99.90;;;;;;4169845;28;20033;-61
2023/06/08 00:20:51;;;;;;;8.82;3.97;;;19.00;99.90;;;;;;4165897;28;20041;-61
2023/06/08 00:22:52;;;;;;;5.72;3.88;;;19.00;99.90;;;;;;4167206;28;20041;-61
2023/06/08 00:24:53;;;;;;;8.85;4.80;;;18.90;99.90;;;;;;4172109;28;20078;-61
2023/06/08 00:26:53;;;;;;;6.82;3.83;;;18.90;99.90;;;;;;4164395;28;20376;-61
2023/06/08 00:28:54;;;;;;;8.27;4.38;;;18.90;99.90;;;;;;4172242;28;20057;-61
2023/06/08 00:30:55;;;;;;;8.98;4.45;;;18.90;99.90;;;;;;4166115;28;20045;-61
2023/06/08 00:32:55;;;;;;;7.68;4.45;;;18.90;99.90;;;;;;4165057;28;20060;-61
2023/06/08 00:34:56;;;;;;;7.07;3.85;;;18.90;99.90;;;;;;4161874;28;20029;-61
2023/06/08 00:36:56;;;;;;;8.45;4.70;;;18.90;99.90;;;;;;4163501;28;20582;-61
2023/06/08 00:38:57;;;;;;;8.43;4.22;;;18.90;99.90;;;;;;4170299;28;20404;-61
2023/06/08 00:40:58;;;;;;;7.15;4.82;;;18.90;99.90;;;;;;4162434;28;20037;-61
2023/06/08 00:42:58;;;;;;;8.13;4.40;;;18.80;99.90;;;;;;4170164;28;20037;-61
2023/06/08 00:44:59;;;;;;;8.00;4.85;;;18.80;99.90;;;;;;4171425;28;20041;-61
2023/06/08 00:47:00;;;;;;;10.38;4.85;;;18.80;99.90;;;;;;4169104;28;20033;-61
2023/06/08 00:49:01;;;;;;;9.25;4.60;;;18.80;99.90;;;;;;4165783;28;20037;-61
2023/06/08 00:51:02;;;;;;;9.13;4.47;;;18.80;99.90;;;;;;4167794;28;20122;-61
2023/06/08 00:53:03;;;;;;;7.93;4.53;;;18.70;99.90;;;;;;4160909;28;20583;-62
2023/06/08 00:55:04;;;;;;;7.65;4.38;;;18.80;99.90;;;;;;4165790;28;20530;-62
2023/06/08 00:57:05;;;;;;;9.68;4.65;;;18.70;99.90;;;;;;4170703;28;20128;-61
2023/06/08 00:59:07;;;;;;;9.20;4.65;;;18.70;99.90;;;;;;4166481;28;20400;-61
2023/06/08 01:01:12;;;;;;;9.30;5.10;;;18.70;99.90;;;;;;4166202;28;20123;-61
2023/06/08 01:03:16;;;;;;;7.45;4.82;;;18.60;99.90;;;;;;4166874;28;20304;-61
2023/06/08 01:05:17;;;;;;;7.47;4.40;;;18.60;99.90;;;;;;4158628;28;20044;-61
2023/06/08 01:07:50;;;;;;;8.77;4.97;;;18.60;99.90;;;;;;4171550;28;20068;-61
2023/06/08 01:10:46;;;;;;;8.55;5.05;;;18.60;99.90;;;;;;4166997;28;20488;-61
2023/06/08 01:13:25;;;;;;;8.93;4.63;;;18.50;99.90;;;;;;4114912;28;20131;-61
2023/06/08 01:15:38;;;;;;;8.63;4.28;;;18.50;99.90;;;;;;4105222;28;20042;-60
2023/06/08 01:17:40;;;;;;;9.35;5.28;;;18.50;99.90;;;;;;4149368;28;20040;-60
2023/06/08 01:19:54;;;;;;;11.68;4.88;;;18.40;99.90;;;;;;4154356;28;20485;-61
2023/06/08 01:22:05;;;;;;;9.88;4.93;;;18.40;99.90;;;;;;4168348;28;20069;-61
2023/06/08 01:24:20;;;;;;;9.15;5.22;;;18.40;99.90;;;;;;4151607;28;20045;-61
2023/06/08 01:26:21;;;;;;;11.40;5.25;;;18.40;99.90;;;;;;4166467;28;20060;-60
2023/06/08 01:28:23;;;;;;;8.77;4.70;;;18.30;99.90;;;;;;4158126;28;20045;-60
2023/06/08 01:30:25;;;;;;;8.90;4.97;;;18.30;99.90;;;;;;4171565;28;20041;-60
2023/06/08 01:32:26;;;;;;;11.53;5.30;;;18.30;99.90;;;;;;4170493;28;20037;-61
2023/06/08 01:34:27;;;;;;;8.15;5.07;;;18.20;99.90;;;;;;4172254;28;20566;-60
2023/06/08 01:37:05;;;;;;;8.60;5.55;;;18.20;99.90;;;;;;4167732;28;20041;-61
2023/06/08 01:39:23;;;;;;;9.15;5.40;;;18.10;99.90;;;;;;4164307;28;20064;-62
2023/06/08 01:41:27;;;;;;;8.80;5.28;;;18.10;99.90;;;;;;4154974;28;20503;-61
2023/06/08 01:43:30;;;;;;;9.13;4.72;;;18.10;99.90;;;;;;4166195;28;20037;-61
2023/06/08 01:45:36;;;;;;;11.18;5.85;;;18.10;99.90;;;;;;4160311;28;21292;-61
2023/06/08 01:47:47;;;;;;;8.68;4.65;;;18.10;99.90;;;;;;4169729;28;20120;-61
2023/06/08 01:49:49;;;;;;;9.93;5.43;;;18.00;99.90;;;;;;4171823;28;20037;-61
2023/06/08 01:51:50;;;;;;;9.10;4.82;;;18.00;99.90;;;;;;4163788;28;20112;-60
2023/06/08 01:54:03;;;;;;;7.57;4.68;;;18.00;99.90;;;;;;4168481;28;20033;-60
2023/06/08 01:56:03;;;;;;;9.55;5.10;;;18.10;99.90;;;;;;4168505;28;20040;-61
2023/06/08 01:58:04;;;;;;;7.80;4.85;;;18.00;99.90;;;;;;4168400;28;20184;-61
2023/06/08 02:00:06;;;;;;;10.82;5.43;;;18.00;99.90;;;;;;4170101;28;20102;-62
2023/06/08 02:02:07;;;;;;;13.45;5.35;;;18.00;99.90;;;;;;4166410;28;20135;-61
2023/06/08 02:04:08;;;;;;;9.18;5.13;;;18.00;99.90;;;;;;4171373;28;20060;-61
2023/06/08 02:06:09;;;;;;;10.93;5.05;;;17.90;99.90;;;;;;4169788;28;20037;-61
2023/06/08 02:08:09;;;;;;;10.90;5.22;;;18.00;99.90;;;;;;4174533;28;20039;-61
2023/06/08 02:10:11;;;;;;;9.35;5.05;;;17.90;99.90;;;;;;4168771;28;20071;-61
2023/06/08 02:12:12;;;;;;;11.57;6.10;;;18.00;99.90;;;;;;4174518;28;20036;-61
2023/06/08 02:14:12;;;;;;;10.90;5.30;;;18.00;99.90;;;;;;4170977;28;20040;-61
2023/06/08 02:16:13;;;;;;;11.23;5.60;;;17.90;99.90;;;;;;4171450;28;20476;-61
2023/06/08 02:18:14;;;;;;;11.50;5.28;;;17.90;99.90;;;;;;4166878;28;20423;-61
2023/06/08 02:20:15;;;;;;;10.43;5.32;;;17.90;99.90;;;;;;4172300;28;20052;-60
2023/06/08 02:22:16;;;;;;;13.38;5.70;;;17.90;99.90;;;;;;4172122;28;20060;-61
2023/06/08 02:24:18;;;;;;;9.50;5.50;;;17.90;99.90;;;;;;4162651;28;20421;-61
2023/06/08 02:26:18;;;;;;;11.75;5.15;;;17.80;99.90;;;;;;4170805;28;20037;-61
2023/06/08 02:28:20;;;;;;;10.23;5.93;;;17.70;99.90;;;;;;4168125;28;20037;-61
2023/06/08 02:30:21;;;;;;;15.33;5.47;;;17.80;99.90;;;;;;4167778;28;20049;-60
2023/06/08 02:32:21;;;;;;;9.88;5.75;;;17.80;99.90;;;;;;4173156;28;20392;-61
2023/06/08 02:34:23;;;;;;;9.18;5.18;;;17.80;99.90;;;;;;4169561;28;20041;-61
2023/06/08 02:36:25;;;;;;;7.97;4.45;;;17.80;99.90;;;;;;4166865;28;20526;-61
2023/06/08 02:38:26;;;;;;;12.47;6.00;;;17.90;99.90;;;;;;4173350;28;20033;-61
2023/06/08 02:40:27;;;;;;;10.93;5.43;;;17.80;99.90;;;;;;4164726;28;20048;-61
2023/06/08 02:42:27;;;;;;;12.15;6.10;;;17.80;99.90;;;;;;4174503;28;20455;-60
2023/06/08 02:44:28;;;;;;;8.50;5.53;;;17.80;99.90;;;;;;4167934;28;20040;-61
2023/06/08 02:46:29;;;;;;;11.38;5.32;;;17.80;99.90;;;;;;4167474;28;20116;-60
2023/06/08 02:48:29;;;;;;;10.05;5.00;;;17.80;99.90;;;;;;4166824;28;20025;-61
2023/06/08 02:50:31;;;;;;;10.63;5.30;;;17.80;99.90;;;;;;4172844;28;21406;-61
2023/06/08 02:52:31;;;;;;;8.80;5.63;;;17.80;99.90;;;;;;4167622;28;20033;-61
2023/06/08 02:54:32;;;;;;;10.93;5.60;;;17.80;99.90;;;;;;4167319;28;20102;-60
2023/06/08 02:56:32;;;;;;;11.27;5.15;;;17.80;99.90;;;;;;4169149;28;20036;-60
2023/06/08 02:58:33;;;;;;;14.65;5.95;;;17.80;99.90;;;;;;4170106;28;21243;-61
2023/06/08 03:00:34;;;;;;;8.95;5.45;;;17.80;99.90;;;;;;4171605;28;20038;-61
2023/06/08 03:02:35;;;;;;;14.77;5.78;;;17.80;99.90;;;;;;4169749;28;20045;-61
2023/06/08 03:04:35;;;;;;;10.02;5.68;;;17.80;99.90;;;;;;4167517;28;20056;-61
2023/06/08 03:06:38;;;;;;;11.43;5.57;;;17.80;99.90;;;;;;4168079;28;20600;-61
2023/06/08 03:08:41;;;;;;;9.07;5.40;;;17.80;99.90;;;;;;4175548;28;20033;-61
2023/06/08 03:10:42;;;;;;;11.27;5.80;;;17.80;99.90;;;;;;4169312;28;20115;-60
2023/06/08 03:12:43;;;;;;;9.02;4.70;;;17.80;99.90;;;;;;4166917;28;20426;-61
2023/06/08 03:14:43;;;;;;;12.45;5.50;;;17.70;99.90;;;;;;4167158;28;20068;-61
2023/06/08 03:16:45;;;;;;;8.65;5.25;;;17.70;99.90;;;;;;4168636;28;20651;-61
2023/06/08 03:18:46;;;;;;;11.85;5.82;;;17.70;99.90;;;;;;4170425;28;20059;-60
2023/06/08 03:20:47;;;;;;;11.60;5.72;;;17.70;99.90;;;;;;4167307;28;20163;-60
2023/06/08 03:22:48;;;;;;;11.88;5.07;;;17.70;99.90;;;;;;4169332;28;20037;-61
2023/06/08 03:24:48;;;;;;;13.68;5.85;;;17.60;99.90;;;;;;4173504;28;20028;-61
2023/06/08 03:26:49;;;;;;;11.05;5.18;;;17.60;99.90;;;;;;4170501;28;20033;-61
2023/06/08 03:28:49;;;;;;;10.55;5.68;;;17.60;99.90;;;;;;4168607;28;20116;-61
2023/06/08 03:30:50;;;;;;;9.95;4.95;;;17.60;99.90;;;;;;4163026;28;20030;-60
2023/06/08 03:32:51;;;;;;;9.40;5.55;;;17.50;99.90;;;;;;4174069;28;20033;-61
2023/06/08 03:34:52;;;;;;;11.35;6.35;;;17.50;99.90;;;;;;4164600;28;20040;-61
2023/06/08 03:36:54;;;;;;;10.05;5.93;;;17.50;99.90;;;;;;4164824;28;20038;-60
2023/06/08 03:38:54;;;;;;;12.20;6.00;;;17.50;99.90;;;;;;4164760;28;20041;-61
2023/06/08 03:40:55;;;;;;;8.95;5.35;;;17.40;99.90;;;;;;4172741;28;20037;-60
2023/06/08 03:42:55;;;;;;;6.88;5.05;;;17.40;99.90;;;;;;4170506;28;20025;-61
2023/06/08 03:44:56;;;;;;;9.38;5.55;;;17.40;99.90;;;;;;4175571;28;20044;-60
2023/06/08 03:46:56;;;;;;;10.77;6.28;;;17.40;99.90;;;;;;4169361;28;20052;-60
2023/06/08 03:48:57;;;;;;;12.32;5.75;;;17.40;99.90;;;;;;4166267;28;20037;-61
2023/06/08 03:50:58;;;;;;;10.85;5.63;;;17.40;99.90;;;;;;4172017;28;20422;-60
2023/06/08 03:52:58;;;;;;;10.88;5.60;;;17.40;99.90;;;;;;4166860;28;20029;-61
2023/06/08 03:54:59;;;;;;;10.43;5.70;;;17.40;99.90;;;;;;4170582;28;20033;-60
2023/06/08 03:57:00;;;;;;;10.23;5.75;;;17.40;99.90;;;;;;4170161;28;20040;-60
2023/06/08 03:59:01;;;;;;;10.15;5.35;;;17.40;99.90;;;;;;4168751;28;20032;-60
2023/06/08 04:01:02;;;;;;;9.70;5.15;;;17.30;99.90;;;;;;4166214;28;20503;-61
2023/06/08 04:03:03;;;;;;;9.43;5.55;;;17.30;99.90;;;;;;4173125;28;20033;-60
2023/06/08 04:05:06;;;;;;;10.40;5.57;;;17.30;99.90;;;;;;4165930;28;20044;-61
2023/06/08 04:07:06;;;;;;;9.77;5.55;;;17.30;99.90;;;;;;4169481;28;20051;-61
2023/06/08 04:09:08;;;;;;;9.85;6.05;;;17.30;99.90;;;;;;4170074;28;20111;-61
2023/06/08 04:11:08;;;;;;;9.05;4.93;;;17.30;99.90;;;;;;4162924;28;20065;-61
2023/06/08 04:13:09;;;;;;;10.88;5.70;;;17.30;99.90;;;;;;4169687;28;20048;-61
2023/06/08 04:15:13;;;;;;;13.95;6.25;;;17.30;99.90;;;;;;4167237;28;20091;-61
2023/06/08 04:17:13;;;;;;;8.82;5.47;;;17.30;99.90;;;;;;4165486;28;20037;-61
2023/06/08 04:19:14;;;;;;;11.48;6.28;;;17.30;99.90;;;;;;4168833;28;20419;-60
2023/06/08 04:21:15;;;;;;;11.63;5.53;;;17.30;99.90;;;;;;4168004;28;20124;-61
2023/06/08 04:23:16;;;;;;;10.18;5.82;;;17.30;99.90;;;;;;4168182;28;20049;-61
2023/06/08 04:25:17;;;;;;;11.27;5.82;;;17.30;99.90;;;;;;4168727;28;20037;-61
2023/06/08 04:27:19;;;;;;;11.73;5.70;;;17.30;99.90;;;;;;4169028;28;20029;-61
2023/06/08 04:29:19;;;;;;;9.80;5.60;;;17.30;99.90;;;;;;4171943;28;20076;-60
2023/06/08 04:31:20;;;;;;;9.77;5.80;;;17.30;99.90;;;;;;4171015;28;20038;-61
2023/06/08 04:33:22;;;;;;;15.60;6.45;;;17.20;99.90;;;;;;4168860;28;20041;-61
2023/06/08 04:35:22;;;;;;;12.07;5.50;;;17.20;99.90;;;;;;4169364;28;20072;-60
2023/06/08 04:37:23;;;;;;;11.27;6.00;;;17.10;99.90;;;;;;4162686;28;20045;-61
2023/06/08 04:39:24;;;;;;;8.40;5.18;;;17.20;99.90;;;;;;4167096;28;20048;-61
2023/06/08 04:41:29;;;;;;;7.75;5.22;;;17.20;99.90;;;;;;4163877;28;20117;-61
2023/06/08 04:43:30;;;;;;;11.93;6.30;;;17.20;99.90;;;;;;4167857;28;20033;-61
2023/06/08 04:45:33;;;;;;;11.35;6.13;;;17.20;99.90;;;;;;4168902;28;20297;-60
2023/06/08 04:47:35;;;;;;;10.05;5.95;;;17.20;99.90;;;;;;4167641;28;20034;-61
2023/06/08 04:49:36;;;;;;;13.85;6.75;;;17.20;99.90;;;;;;4168335;28;20071;-62
2023/06/08 04:51:39;;;;;;;11.27;6.00;;;17.20;99.90;;;;;;4168702;28;20045;-61
2023/06/08 04:53:42;;;;;;;13.48;6.65;;;17.20;99.90;;;;;;4174660;28;20030;-61
2023/06/08 04:55:45;;;;;;;;;;;17.20;99.90;;;;;;4172183;28;20406;-61
2023/06/08 04:57:46;;;;;;;9.20;5.35;;;17.20;99.90;;;;;;4169433;28;19932;-61
2023/06/08 04:59:47;;;;;;;10.98;5.88;;;17.20;99.90;;;;;;4172489;28;20309;-60
2023/06/08 05:01:47;;;;;;;15.65;5.80;;;17.10;99.90;;;;;;4171636;28;20041;-61
2023/06/08 05:03:48;;;;;;;13.80;6.25;;;17.10;99.90;;;;;;4169732;28;20379;-61
2023/06/08 05:05:49;;;;;;;8.23;5.38;;;17.20;99.90;;;;;;4172532;28;20088;-61
2023/06/08 05:07:49;;;;;;;15.85;6.95;;;17.20;99.90;;;;;;4172607;28;20205;-61
2023/06/08 05:09:50;;;;;;;13.38;6.18;;;17.10;99.90;;;;;;4172115;28;20406;-61
2023/06/08 05:11:51;;;;;;;13.75;6.60;;;17.10;99.90;;;;;;4170479;28;20057;-61
2023/06/08 05:13:51;;;;;;;13.15;6.60;;;17.10;99.90;;;;;;4171439;28;20092;-61
2023/06/08 05:15:54;;;;;;;15.63;6.90;;;17.10;99.90;;;;;;4172908;28;20036;-61
2023/06/08 05:17:55;;;;;;;15.30;7.55;;;17.00;99.90;;;;;;4169710;28;20033;-61
2023/06/08 05:19:55;;;;;;;21.90;7.13;;;16.80;99.90;;;;;;4177081;28;20450;-61
2023/06/08 05:21:56;;;;;;;12.32;6.05;;;16.80;99.90;;;;;;4170753;28;20037;-61
2023/06/08 05:23:56;;;;;;;11.57;6.38;;;16.80;99.90;;;;;;4169830;28;20090;-60
2023/06/08 05:25:57;;;;;;;11.20;6.30;;;16.90;99.90;;;;;;4169518;28;20076;-60
2023/06/08 05:27:57;;;;;;;10.75;6.63;;;16.90;99.90;;;;;;4166443;28;20026;-61
2023/06/08 05:29:58;;;;;;;12.90;6.70;;;16.90;99.90;;;;;;4171294;28;20041;-60
2023/06/08 05:32:00;;;;;;;14.65;6.75;;;16.80;99.90;;;;;;4169320;28;20458;-61
2023/06/08 05:34:01;;;;;;;9.65;6.45;;;16.80;99.90;;;;;;4172505;28;20044;-61
2023/06/08 05:36:02;;;;;;;10.68;6.35;;;16.90;99.90;;;;;;4162306;28;20412;-61
2023/06/08 05:38:02;;;;;;;11.35;5.65;;;16.90;99.90;;;;;;4167908;28;20116;-61
2023/06/08 05:40:04;;;;;;;16.20;7.43;;;16.90;99.90;;;;;;4172120;28;20132;-66
2023/06/08 05:42:06;;;;;;;11.77;6.77;;;16.80;99.90;;;;;;4170837;28;20061;-63
2023/06/08 05:44:08;;;;;;;12.98;7.30;;;16.90;99.90;;;;;;4168989;28;20110;-63
2023/06/08 05:46:09;;;;;;;19.33;7.38;;;16.80;99.90;;;;;;4171277;28;20431;-62
2023/06/08 05:48:09;;;;;;;10.90;6.07;;;16.80;99.90;;;;;;4166345;28;20108;-63
2023/06/08 05:50:10;;;;;;;10.18;5.63;;;16.70;99.90;;;;;;4170733;28;20400;-63
2023/06/08 05:52:11;;;;;;;12.15;6.18;;;16.80;99.90;;;;;;4169620;28;20034;-63
2023/06/08 05:54:12;;;;;;;11.27;6.78;;;17.00;99.90;;;;;;4169022;28;20414;-63
2023/06/08 05:56:13;;;;;;;13.48;6.57;;;17.20;99.90;;;;;;4172190;28;20510;-63
2023/06/08 05:58:13;;;;;;;16.50;7.82;;;17.30;99.90;;;;;;4162614;28;20076;-64
2023/06/08 06:00:14;;;;;;;13.93;6.88;;;17.50;99.90;;;;;;4170940;28;20029;-63
2023/06/08 06:02:15;;;;;;;12.82;6.05;;;17.70;99.90;;;;;;4167762;28;20049;-63
2023/06/08 06:04:16;;;;;;;13.75;7.03;;;18.00;99.90;;;;;;4174098;28;20492;-63
2023/06/08 06:06:16;;;;;;;12.15;5.63;;;18.30;99.90;;;;;;4169883;28;20044;-63
2023/06/08 06:08:17;;;;;;;10.48;5.50;;;18.60;99.90;;;;;;4166251;28;20025;-63
2023/06/08 06:10:18;;;;;;;11.85;5.50;;;18.90;99.90;;;;;;4167255;28;20029;-64
2023/06/08 06:12:18;;;;;;;10.30;5.60;;;19.30;99.90;;;;;;4170134;28;20040;-64
2023/06/08 06:14:19;;;;;;;11.45;5.63;;;19.60;99.90;;;;;;4168408;28;20045;-64
2023/06/08 06:16:19;;;;;;;10.40;4.70;;;20.00;99.90;;;;;;4170136;28;20108;-64
2023/06/08 06:18:20;;;;;;;8.35;4.80;;;20.20;99.90;;;;;;4170922;28;20029;-64
2023/06/08 06:20:22;;;;;;;9.60;5.03;;;20.60;99.90;;;;;;4169176;28;20502;-64
2023/06/08 06:22:22;;;;;;;11.50;5.40;;;20.90;99.90;;;;;;4169575;28;20045;-64
2023/06/08 06:24:23;;;;;;;8.70;4.95;;;20.90;99.90;;;;;;4170588;28;20033;-64
2023/06/08 06:26:24;;;;;;;9.10;5.05;;;21.20;99.90;;;;;;4170062;28;20040;-65
2023/06/08 06:28:25;;;;;;;8.80;5.20;;;21.40;99.90;;;;;;4168008;28;20048;-64
2023/06/08 06:30:26;;;;;;;8.88;4.15;;;21.50;99.90;;;;;;4169418;28;20123;-64
2023/06/08 06:32:26;;;;;;;10.52;4.57;;;21.70;99.90;;;;;;4165199;28;20123;-65
2023/06/08 06:34:27;;;;;;;10.38;5.53;;;21.90;99.90;;;;;;4168029;28;20463;-64
2023/06/08 06:36:28;;;;;;;13.65;5.55;;;21.80;99.90;;;;;;4162826;28;20404;-64
2023/06/08 06:38:28;;;;;;;15.05;6.18;;;21.60;99.90;;;;;;4171716;28;20483;-64
2023/06/08 06:40:29;;;;;;;13.07;6.05;;;21.30;99.90;;;;;;4172650;28;20041;-64
2023/06/08 06:42:30;;;;;;;10.65;5.82;;;21.00;99.90;;;;;;4174289;28;20472;-65
2023/06/08 06:44:31;;;;;;;8.27;4.78;;;20.70;99.90;;;;;;4165993;28;20037;-64
2023/06/08 06:46:31;;;;;;;11.15;5.43;;;21.00;99.90;;;;;;4169529;28;20132;-64
2023/06/08 06:48:32;;;;;;;10.02;4.43;;;21.00;99.90;;;;;;4164030;28;20033;-64
2023/06/08 06:50:33;;;;;;;13.07;4.88;;;21.20;99.90;;;;;;4169987;28;20520;-64
2023/06/08 06:52:34;;;;;;;9.95;5.35;;;21.10;99.90;;;;;;4175335;28;20036;-64
2023/06/08 06:54:34;;;;;;;10.57;5.00;;;21.00;99.90;;;;;;4170518;28;20465;-64
2023/06/08 06:56:35;;;;;;;10.35;5.18;;;21.00;99.90;;;;;;4171295;28;20033;-64
2023/06/08 06:58:35;;;;;;;6.88;4.32;;;20.50;99.90;;;;;;4172676;28;20033;-64
2023/06/08 07:00:39;;;;;;;7.05;3.95;;;20.60;99.90;;;;;;4172585;28;20472;-64
2023/06/08 07:02:40;;;;;;;11.80;5.53;;;20.60;99.90;;;;;;4172517;28;20045;-65
2023/06/08 07:04:41;;;;;;;9.20;4.97;;;20.60;99.90;;;;;;4170483;28;20029;-64
2023/06/08 07:06:42;;;;;;;9.00;4.38;;;20.50;99.90;;;;;;4170578;28;20033;-65
2023/06/08 07:08:43;;;;;;;15.75;5.88;;;20.50;99.90;;;;;;4171355;28;20542;-64
2023/06/08 07:10:44;;;;;;;14.00;5.80;;;20.40;99.90;;;;;;4166602;28;20037;-65
2023/06/08 07:12:44;;;;;;;8.82;5.15;;;20.40;99.90;;;;;;4174345;28;20061;-65
2023/06/08 07:14:45;;;;;;;13.75;5.78;;;20.40;99.90;;;;;;4172538;28;20032;-65
2023/06/08 07:16:45;;;;;;;9.75;4.70;;;20.40;99.90;;;;;;4165744;28;20037;-65
2023/06/08 07:18:46;;;;;;;11.60;5.13;;;20.60;99.90;;;;;;4169337;28;20034;-65
2023/06/08 07:20:47;;;;;;;13.65;5.75;;;20.60;99.90;;;;;;4166291;28;20054;-65
2023/06/08 07:22:48;;;;;;;9.52;5.20;;;20.40;99.90;;;;;;4162581;28;20104;-65
2023/06/08 07:24:48;;;;;;;12.52;5.68;;;20.40;99.90;;;;;;4172867;28;20509;-65
2023/06/08 07:26:49;;;;;;;11.10;5.32;;;20.20;99.90;;;;;;4164793;28;20391;-65
2023/06/08 07:28:54;;;;;;;8.73;5.18;;;20.30;99.90;;;;;;4168390;28;20048;-64
2023/06/08 07:30:54;;;;;;;7.30;4.63;;;20.30;99.90;;;;;;4167156;28;20055;-65
2023/06/08 07:32:55;;;;;;;11.98;5.63;;;20.20;99.90;;;;;;4170260;28;20057;-65
2023/06/08 07:34:56;;;;;;;11.35;4.90;;;20.20;99.90;;;;;;4168375;28;20108;-65
2023/06/08 07:36:57;;;;;;;9.10;5.35;;;20.20;99.90;;;;;;4165389;28;20040;-65
2023/06/08 07:38:58;;;;;;;8.75;4.97;;;20.10;99.90;;;;;;4170271;28;20037;-65
2023/06/08 07:40:58;;;;;;;9.07;5.15;;;20.10;99.90;;;;;;4168740;28;20037;-65
2023/06/08 07:42:59;;;;;;;8.48;4.85;;;20.10;99.90;;;;;;4168951;28;20037;-65
2023/06/08 07:45:00;;;;;;;8.93;4.75;;;20.20;99.90;;;;;;4171796;28;20059;-65
2023/06/08 07:47:00;;;;;;;9.35;4.90;;;20.10;99.90;;;;;;4169601;28;20037;-64
2023/06/08 07:49:01;;;;;;;9.18;5.47;;;20.10;99.90;;;;;;4166723;28;20037;-65
2023/06/08 07:51:02;;;;;;;9.43;5.35;;;19.90;99.90;;;;;;4167565;28;20045;-65
2023/06/08 07:53:02;;;;;;;12.07;5.10;;;19.90;99.90;;;;;;4168224;28;20064;-65
2023/06/08 07:55:05;;;;;;;13.13;5.28;;;20.00;99.90;;;;;;4165008;28;20539;-66
2023/06/08 07:57:06;;;;;;;10.05;5.07;;;20.00;99.90;;;;;;4169962;28;20052;-64
2023/06/08 07:59:07;;;;;;;9.93;4.90;;;20.10;99.90;;;;;;4172325;28;20037;-64
2023/06/08 08:01:07;;;;;;;13.43;5.10;;;20.20;99.90;;;;;;4169257;28;20037;-64
2023/06/08 08:03:09;;;;;;;7.28;4.10;;;20.30;99.90;;;;;;4169142;28;20037;-65
2023/06/08 08:05:10;;;;;;;7.80;4.22;;;20.40;99.90;;;;;;4167126;28;20033;-65
2023/06/08 08:07:10;;;;;;;9.20;5.50;;;20.50;99.90;;;;;;4165409;28;20045;-65
2023/06/08 08:09:11;;;;;;;7.97;4.13;;;20.60;99.90;;;;;;4169569;28;20045;-65
2023/06/08 08:11:11;;;;;;;9.77;4.90;;;20.50;99.90;;;;;;4166042;28;20033;-63
2023/06/08 08:13:12;;;;;;;11.30;4.97;;;20.60;99.90;;;;;;4166441;28;20427;-63
2023/06/08 08:15:13;;;;;;;9.85;5.32;;;20.70;99.90;;;;;;4162562;28;20057;-64
2023/06/08 08:17:14;;;;;;;11.25;5.18;;;20.60;99.90;;;;;;4164800;28;20076;-63
2023/06/08 08:19:16;;;;;;;15.35;6.47;;;20.70;99.90;;;;;;4167502;28;20052;-63
2023/06/08 08:21:16;;;;;;;14.03;6.20;;;20.60;99.90;;;;;;4161232;28;20029;-63
2023/06/08 08:23:17;;;;;;;10.15;4.95;;;20.60;99.90;;;;;;4166590;28;20373;-64
2023/06/08 08:25:18;;;;;;;9.40;4.65;;;20.70;99.90;;;;;;4165769;28;20117;-63
2023/06/08 08:27:19;;;;;;;8.48;4.50;;;20.90;99.90;;;;;;4169078;28;20044;-63
2023/06/08 08:29:19;;;;;;;8.60;4.65;;;21.00;99.90;;;;;;4172511;28;20496;-63
2023/06/08 08:31:20;;;;;;;11.20;4.55;;;21.20;99.90;;;;;;4169202;28;20582;-62
2023/06/08 08:33:20;;;;;;;8.32;4.68;;;21.30;99.90;;;;;;4172136;28;20029;-63
2023/06/08 08:35:24;;;;;;;8.93;4.50;;;21.50;99.90;;;;;;4166320;28;20037;-63
2023/06/08 08:37:25;;;;;;;14.73;5.57;;;21.70;99.90;;;;;;4172150;28;20068;-62
2023/06/08 08:39:25;;;;;;;10.85;4.60;;;21.80;99.90;;;;;;4171162;28;20045;-62
2023/06/08 08:41:28;;;;;;;10.13;4.70;;;21.80;99.90;;;;;;4168968;28;20594;-63
2023/06/08 08:44:01;;;;;;;7.75;4.47;;;21.90;99.90;;;;;;4166991;28;20476;-63
2023/06/08 08:46:06;;;;;;;15.82;6.05;;;21.80;99.90;;;;;;4158657;28;20493;-63
2023/06/08 08:48:12;;;;;;;10.38;5.50;;;21.60;99.90;;;;;;4168906;28;20144;-63
2023/06/08 08:50:17;;;;;;;8.38;4.18;;;21.50;99.90;;;;;;4165891;28;20041;-63
2023/06/08 08:52:19;;;;;;;9.80;4.78;;;21.60;99.90;;;;;;4168681;28;20471;-63
2023/06/08 08:54:31;;;;;;;10.20;5.13;;;21.50;99.90;;;;;;4167257;28;20030;-63
2023/06/08 08:56:37;;;;;;;15.43;6.25;;;21.60;99.90;;;;;;4163632;28;20042;-63
2023/06/08 08:58:38;;;;;;;9.15;5.00;;;21.50;99.90;;;;;;4166627;28;20164;-63
2023/06/08 09:00:39;;;;;;;8.95;5.68;;;21.50;99.90;;;;;;4164423;28;20503;-62
2023/06/08 09:02:39;;;;;;;10.32;5.57;;;21.20;99.90;;;;;;4168360;28;20955;-64
2023/06/08 09:04:40;;;;;;;11.90;6.07;;;21.20;99.90;;;;;;4165414;28;20041;-63
2023/06/08 09:06:50;;;;;;;11.10;5.00;;;21.20;99.90;;;;;;4168794;28;20037;-63
2023/06/08 09:08:51;;;;;;;7.20;4.68;;;21.30;99.90;;;;;;4170076;28;20196;-62
2023/06/08 09:11:06;;;;;;;12.15;6.18;;;21.50;99.90;;;;;;4168748;28;20439;-63
2023/06/08 09:13:18;;;;;;;8.30;4.57;;;21.50;99.90;;;;;;4169980;28;20128;-63
2023/06/08 09:15:36;;;;;;;9.48;4.70;;;21.60;99.90;;;;;;4166811;28;20052;-63
2023/06/08 09:17:38;;;;;;;10.15;5.15;;;21.80;99.90;;;;;;4166857;28;20041;-63
2023/06/08 09:19:52;;;;;;;11.43;5.63;;;21.90;99.90;;;;;;4167471;28;20049;-62
2023/06/08 09:21:53;;;;;;;12.60;6.00;;;21.90;99.90;;;;;;4165176;28;20037;-63
2023/06/08 09:24:05;;;;;;;14.63;5.53;;;22.00;99.90;;;;;;4169085;28;20052;-63
2023/06/08 09:26:07;;;;;;;7.55;4.60;;;22.00;99.90;;;;;;4166106;28;20036;-62
2023/06/08 09:28:18;;;;;;;9.43;4.72;;;22.30;99.90;;;;;;4167604;28;20087;-63
2023/06/08 09:30:23;;;;;;;14.55;5.68;;;22.40;99.90;;;;;;4166188;28;20119;-63
2023/06/08 09:32:33;;;;;;;10.30;5.05;;;22.40;99.90;;;;;;4165688;28;20047;-63
2023/06/08 09:34:51;;;;;;;9.07;4.47;;;22.50;99.90;;;;;;4170462;28;20511;-63
2023/06/08 09:37:07;;;;;;;9.13;5.13;;;22.80;99.90;;;;;;4166256;28;20467;-63
2023/06/08 09:39:08;;;;;;;10.05;5.10;;;23.00;99.90;;;;;;4166158;28;20103;-63
2023/06/08 09:41:21;;;;;;;8.63;4.90;;;23.10;99.90;;;;;;4166277;28;20049;-63
2023/06/08 09:43:33;;;;;;;13.45;6.10;;;23.20;99.90;;;;;;4168046;28;20037;-63
2023/06/08 09:45:45;;;;;;;6.43;3.90;;;23.20;99.90;;;;;;4165672;28;20037;-63
2023/06/08 09:47:45;;;;;;;8.23;4.90;;;23.40;99.90;;;;;;4167872;28;20068;-63
2023/06/08 09:49:46;;;;;;;8.60;4.80;;;23.40;99.90;;;;;;4170113;28;20738;-63
2023/06/08 09:51:49;;;;;;;8.98;4.57;;;23.50;99.90;;;;;;4166333;28;20416;-63
2023/06/08 09:53:57;;;;;;;14.57;6.07;;;23.70;99.90;;;;;;4168804;28;20029;-63
2023/06/08 09:55:58;;;;;;;13.15;6.38;;;23.70;99.90;;;;;;4165565;28;20049;-63
2023/06/08 09:58:02;;;;;;;13.90;4.95;;;23.60;99.90;;;;;;4168079;28;20048;-63
2023/06/08 10:00:24;;;;;;;8.38;4.88;;;23.70;99.90;;;;;;4167844;28;20072;-63
2023/06/08 10:02:35;;;;;;;12.27;5.97;;;23.80;99.90;;;;;;4165431;28;20057;-63
2023/06/08 10:04:40;;;;;;;13.90;6.22;;;23.80;99.90;;;;;;4166108;28;20041;-63
2023/06/08 10:06:44;;;;;;;9.15;4.60;;;23.90;99.90;;;;;;4168917;28;20056;-63
2023/06/08 10:08:48;;;;;;;10.63;4.30;;;23.90;99.90;;;;;;4165842;28;20458;-62
2023/06/08 10:10:49;;;;;;;5.85;3.58;;;24.00;99.90;;;;;;4166570;28;20032;-63
2023/06/08 10:12:50;;;;;;;7.45;4.90;;;24.00;99.90;;;;;;4163849;28;20043;-63
2023/06/08 10:14:51;;;;;;;8.40;3.97;;;23.80;99.90;;;;;;4166634;28;20033;-63
2023/06/08 10:16:54;;;;;;;7.65;4.50;;;23.80;99.90;;;;;;4166189;28;20033;-63
2023/06/08 10:18:57;;;;;;;6.32;3.75;;;23.80;99.90;;;;;;4171522;28;20036;-63
2023/06/08 10:20:58;;;;;;;7.75;4.65;;;23.90;99.90;;;;;;4165840;28;20053;-63
2023/06/08 10:22:59;;;;;;;11.38;5.07;;;23.90;99.90;;;;;;4162995;28;20378;-63
2023/06/08 10:25:01;;;;;;;8.55;4.25;;;23.90;99.90;;;;;;4169421;28;20103;-63
2023/06/08 10:27:33;;;;;;;10.05;5.10;;;24.00;99.90;;;;;;4165028;28;20045;-63
2023/06/08 10:29:33;;;;;;;15.25;5.47;;;24.20;99.90;;;;;;4163922;28;20484;-63
2023/06/08 10:31:39;;;;;;;9.88;4.47;;;24.20;99.90;;;;;;4165537;28;20048;-63
2023/06/08 10:33:40;;;;;;;11.23;5.10;;;24.30;99.90;;;;;;4166758;28;20037;-63